sensor_id;sensor_type;location;lat;lon;timestamp;pressure;altitude;pressure_sealevel;temperature;humidity
73297;BME280;61524;50.938;11.396;2022-12-18T00:01:34;100452.28;;;-13.94;96.05
73297;BME280;61524;50.938;11.396;2022-12-18T00:04:01;100467.69;;;-13.94;96.07
73297;BME280;61524;50.938;11.396;2022-12-18T00:06:28;100456.03;;;-14.03;94.95
73297;BME280;61524;50.938;11.396;2022-12-18T00:08:56;100461.94;;;-14.01;96.02
73297;BME280;61524;50.938;11.396;2022-12-18T00:11:24;100447.94;;;-13.92;96.17
73297;BME280;61524;50.938;11.396;2022-12-18T00:13:50;100454.91;;;-13.96;96.14
73297;BME280;61524;50.938;11.396;2022-12-18T00:16:21;100457.63;;;-14.00;96.95
73297;BME280;61524;50.938;11.396;2022-12-18T00:18:51;100460.13;;;-13.99;96.12
73297;BME280;61524;50.938;11.396;2022-12-18T00:21:18;100463.66;;;-14.01;96.42
73297;BME280;61524;50.938;11.396;2022-12-18T00:23:44;100456.94;;;-14.04;96.57
73297;BME280;61524;50.938;11.396;2022-12-18T00:26:15;100464.63;;;-14.04;95.75
73297;BME280;61524;50.938;11.396;2022-12-18T00:28:42;100451.13;;;-14.09;94.97
73297;BME280;61524;50.938;11.396;2022-12-18T00:31:11;100465.47;;;-14.04;96.36
73297;BME280;61524;50.938;11.396;2022-12-18T00:33:37;100457.97;;;-14.10;96.25
73297;BME280;61524;50.938;11.396;2022-12-18T00:36:04;100467.41;;;-14.10;95.64
73297;BME280;61524;50.938;11.396;2022-12-18T00:38:31;100464.72;;;-14.07;95.67
73297;BME280;61524;50.938;11.396;2022-12-18T00:40:57;100462.16;;;-14.07;94.98
73297;BME280;61524;50.938;11.396;2022-12-18T00:43:23;100463.59;;;-14.00;96.52
73297;BME280;61524;50.938;11.396;2022-12-18T00:45:48;100463.72;;;-14.03;96.73
73297;BME280;61524;50.938;11.396;2022-12-18T00:48:14;100461.88;;;-13.99;96.93
73297;BME280;61524;50.938;11.396;2022-12-18T00:50:39;100462.78;;;-14.00;95.93
73297;BME280;61524;50.938;11.396;2022-12-18T00:53:05;100464.34;;;-13.96;96.30
73297;BME280;61524;50.938;11.396;2022-12-18T00:55:30;100454.97;;;-13.97;95.25
73297;BME280;61524;50.938;11.396;2022-12-18T00:57:56;100452.63;;;-14.04;95.38
73297;BME280;61524;50.938;11.396;2022-12-18T01:00:21;100462.31;;;-14.12;95.61
73297;BME280;61524;50.938;11.396;2022-12-18T01:02:47;100463.44;;;-14.19;94.71
73297;BME280;61524;50.938;11.396;2022-12-18T01:05:13;100452.44;;;-14.22;94.33
73297;BME280;61524;50.938;11.396;2022-12-18T01:07:39;100466.13;;;-14.22;94.88
73297;BME280;61524;50.938;11.396;2022-12-18T01:10:06;100473.81;;;-14.22;96.12
73297;BME280;61524;50.938;11.396;2022-12-18T01:12:32;100475.59;;;-14.24;95.69
73297;BME280;61524;50.938;11.396;2022-12-18T01:14:57;100478.16;;;-14.24;95.43
73297;BME280;61524;50.938;11.396;2022-12-18T01:17:23;100489.34;;;-14.25;96.79
73297;BME280;61524;50.938;11.396;2022-12-18T01:19:49;100495.25;;;-14.23;95.72
73297;BME280;61524;50.938;11.396;2022-12-18T01:22:14;100490.09;;;-14.23;94.80
73297;BME280;61524;50.938;11.396;2022-12-18T01:24:40;100505.66;;;-14.27;96.24
73297;BME280;61524;50.938;11.396;2022-12-18T01:27:05;100516.13;;;-14.34;96.14
73297;BME280;61524;50.938;11.396;2022-12-18T01:29:31;100513.47;;;-14.31;95.96
73297;BME280;61524;50.938;11.396;2022-12-18T01:31:57;100522.91;;;-14.31;95.01
73297;BME280;61524;50.938;11.396;2022-12-18T01:34:25;100523.69;;;-14.29;94.95
73297;BME280;61524;50.938;11.396;2022-12-18T01:36:50;100521.75;;;-14.22;96.71
73297;BME280;61524;50.938;11.396;2022-12-18T01:39:18;100511.59;;;-14.25;96.00
73297;BME280;61524;50.938;11.396;2022-12-18T01:41:44;100508.34;;;-14.31;95.40
73297;BME280;61524;50.938;11.396;2022-12-18T01:50:06;100505.72;;;-14.52;95.88
73297;BME280;61524;50.938;11.396;2022-12-18T01:52:33;100514.34;;;-14.55;95.97
73297;BME280;61524;50.938;11.396;2022-12-18T01:55:00;100511.63;;;-14.50;94.52
73297;BME280;61524;50.938;11.396;2022-12-18T01:57:27;100502.19;;;-14.50;94.94
73297;BME280;61524;50.938;11.396;2022-12-18T01:59:57;100497.84;;;-14.48;95.49
73297;BME280;61524;50.938;11.396;2022-12-18T02:02:27;100491.53;;;-14.39;95.13
73297;BME280;61524;50.938;11.396;2022-12-18T02:04:52;100500.13;;;-14.40;96.08
73297;BME280;61524;50.938;11.396;2022-12-18T02:07:40;100513.63;;;-14.35;96.70
73297;BME280;61524;50.938;11.396;2022-12-18T02:10:17;100502.75;;;-14.42;95.21
73297;BME280;61524;50.938;11.396;2022-12-18T02:15:34;100514.06;;;-14.47;94.49
73297;BME280;61524;50.938;11.396;2022-12-18T02:18:14;100515.91;;;-14.51;96.20
73297;BME280;61524;50.938;11.396;2022-12-18T02:20:54;100517.66;;;-14.51;95.33
73297;BME280;61524;50.938;11.396;2022-12-18T02:26:30;100513.50;;;-14.55;95.90
73297;BME280;61524;50.938;11.396;2022-12-18T02:29:06;100519.53;;;-14.57;96.13
73297;BME280;61524;50.938;11.396;2022-12-18T02:31:40;100517.00;;;-14.58;94.34
73297;BME280;61524;50.938;11.396;2022-12-18T02:34:08;100512.72;;;-14.58;95.52
73297;BME280;61524;50.938;11.396;2022-12-18T02:36:36;100509.94;;;-14.51;94.98
73297;BME280;61524;50.938;11.396;2022-12-18T02:39:06;100506.56;;;-14.52;94.87
73297;BME280;61524;50.938;11.396;2022-12-18T02:41:32;100496.22;;;-14.50;94.90
73297;BME280;61524;50.938;11.396;2022-12-18T02:44:06;100501.25;;;-14.47;95.91
73297;BME280;61524;50.938;11.396;2022-12-18T02:46:35;100508.38;;;-14.55;96.15
73297;BME280;61524;50.938;11.396;2022-12-18T02:51:53;100497.34;;;-14.58;95.76
73297;BME280;61524;50.938;11.396;2022-12-18T02:56:55;100492.56;;;-14.68;94.78
73297;BME280;61524;50.938;11.396;2022-12-18T02:59:37;100488.63;;;-14.78;94.92
73297;BME280;61524;50.938;11.396;2022-12-18T03:02:19;100486.91;;;-14.78;94.75
73297;BME280;61524;50.938;11.396;2022-12-18T03:04:56;100497.16;;;-14.78;94.31
73297;BME280;61524;50.938;11.396;2022-12-18T03:07:37;100493.84;;;-14.81;94.55
73297;BME280;61524;50.938;11.396;2022-12-18T03:10:06;100502.34;;;-14.79;94.68
73297;BME280;61524;50.938;11.396;2022-12-18T03:12:35;100504.03;;;-14.80;94.14
73297;BME280;61524;50.938;11.396;2022-12-18T03:15:13;100494.69;;;-14.81;95.18
73297;BME280;61524;50.938;11.396;2022-12-18T03:17:43;100504.94;;;-14.81;95.80
73297;BME280;61524;50.938;11.396;2022-12-18T03:20:13;100492.94;;;-14.79;95.74
73297;BME280;61524;50.938;11.396;2022-12-18T03:22:42;100506.63;;;-14.80;95.84
73297;BME280;61524;50.938;11.396;2022-12-18T03:25:11;100501.59;;;-14.83;94.91
73297;BME280;61524;50.938;11.396;2022-12-18T03:27:42;100501.59;;;-14.83;95.03
73297;BME280;61524;50.938;11.396;2022-12-18T03:30:11;100505.78;;;-14.80;95.95
73297;BME280;61524;50.938;11.396;2022-12-18T03:33:05;100514.41;;;-14.83;95.17
73297;BME280;61524;50.938;11.396;2022-12-18T03:35:37;100511.03;;;-14.84;94.84
73297;BME280;61524;50.938;11.396;2022-12-18T03:38:04;100514.31;;;-14.80;95.08
73297;BME280;61524;50.938;11.396;2022-12-18T03:40:53;100524.47;;;-14.77;95.46
73297;BME280;61524;50.938;11.396;2022-12-18T03:46:08;100515.31;;;-14.84;95.64
73297;BME280;61524;50.938;11.396;2022-12-18T03:48:48;100523.84;;;-14.84;95.22
73297;BME280;61524;50.938;11.396;2022-12-18T03:51:23;100524.63;;;-14.81;96.45
73297;BME280;61524;50.938;11.396;2022-12-18T03:53:55;100517.88;;;-14.84;96.15
73297;BME280;61524;50.938;11.396;2022-12-18T03:56:26;100515.41;;;-14.87;94.79
73297;BME280;61524;50.938;11.396;2022-12-18T03:58:53;100526.44;;;-14.85;94.17
73297;BME280;61524;50.938;11.396;2022-12-18T04:01:25;100523.22;;;-14.90;95.10
73297;BME280;61524;50.938;11.396;2022-12-18T04:03:54;100522.50;;;-14.95;93.68
73297;BME280;61524;50.938;11.396;2022-12-18T04:06:20;100516.50;;;-14.94;95.02
73297;BME280;61524;50.938;11.396;2022-12-18T04:08:47;100520.03;;;-14.98;95.09
73297;BME280;61524;50.938;11.396;2022-12-18T04:11:12;100513.25;;;-14.99;94.83
73297;BME280;61524;50.938;11.396;2022-12-18T04:13:38;100513.28;;;-15.01;95.16
73297;BME280;61524;50.938;11.396;2022-12-18T04:16:04;100516.91;;;-15.08;94.75
73297;BME280;61524;50.938;11.396;2022-12-18T04:18:30;100505.25;;;-15.17;94.33
73297;BME280;61524;50.938;11.396;2022-12-18T04:20:56;100513.16;;;-15.24;94.40
73297;BME280;61524;50.938;11.396;2022-12-18T04:23:21;100515.84;;;-15.27;93.55
73297;BME280;61524;50.938;11.396;2022-12-18T04:25:47;100519.38;;;-15.31;94.36
73297;BME280;61524;50.938;11.396;2022-12-18T04:28:13;100521.94;;;-15.31;94.86
73297;BME280;61524;50.938;11.396;2022-12-18T04:30:38;100520.22;;;-15.31;95.37
73297;BME280;61524;50.938;11.396;2022-12-18T04:33:03;100509.06;;;-15.30;94.25
73297;BME280;61524;50.938;11.396;2022-12-18T04:35:29;100519.13;;;-15.24;94.76
73297;BME280;61524;50.938;11.396;2022-12-18T04:37:55;100511.34;;;-15.21;94.93
73297;BME280;61524;50.938;11.396;2022-12-18T04:40:20;100503.41;;;-15.13;95.13
73297;BME280;61524;50.938;11.396;2022-12-18T04:42:46;100494.13;;;-15.16;95.09
73297;BME280;61524;50.938;11.396;2022-12-18T04:45:11;100501.81;;;-15.17;94.04
73297;BME280;61524;50.938;11.396;2022-12-18T04:47:37;100506.22;;;-15.21;94.50
73297;BME280;61524;50.938;11.396;2022-12-18T04:50:03;100499.44;;;-15.22;93.20
73297;BME280;61524;50.938;11.396;2022-12-18T04:52:28;100501.25;;;-15.25;95.06
73297;BME280;61524;50.938;11.396;2022-12-18T04:54:54;100497.16;;;-15.31;93.55
73297;BME280;61524;50.938;11.396;2022-12-18T04:57:19;100503.06;;;-15.29;95.03
73297;BME280;61524;50.938;11.396;2022-12-18T04:59:44;100506.69;;;-15.36;93.68
73297;BME280;61524;50.938;11.396;2022-12-18T05:02:10;100498.22;;;-15.38;93.87
73297;BME280;61524;50.938;11.396;2022-12-18T05:04:36;100507.66;;;-15.40;94.40
73297;BME280;61524;50.938;11.396;2022-12-18T05:07:01;100519.59;;;-15.39;94.63
73297;BME280;61524;50.938;11.396;2022-12-18T05:09:27;100530.03;;;-15.45;94.38
73297;BME280;61524;50.938;11.396;2022-12-18T05:11:52;100524.75;;;-15.41;93.20
73297;BME280;61524;50.938;11.396;2022-12-18T05:14:18;100516.19;;;-15.40;94.04
73297;BME280;61524;50.938;11.396;2022-12-18T05:16:44;100533.34;;;-15.42;93.80
73297;BME280;61524;50.938;11.396;2022-12-18T05:19:09;100537.50;;;-15.39;94.83
73297;BME280;61524;50.938;11.396;2022-12-18T05:21:35;100534.34;;;-15.47;94.13
73297;BME280;61524;50.938;11.396;2022-12-18T05:24:00;100540.38;;;-15.50;94.81
73297;BME280;61524;50.938;11.396;2022-12-18T05:26:26;100534.53;;;-15.53;94.54
73297;BME280;61524;50.938;11.396;2022-12-18T05:28:51;100529.44;;;-15.55;94.43
73297;BME280;61524;50.938;11.396;2022-12-18T05:31:16;100537.06;;;-15.52;93.49
73297;BME280;61524;50.938;11.396;2022-12-18T05:33:42;100523.41;;;-15.52;94.20
73297;BME280;61524;50.938;11.396;2022-12-18T05:36:09;100521.59;;;-15.49;94.79
73297;BME280;61524;50.938;11.396;2022-12-18T05:38:36;100524.06;;;-15.46;94.84
73297;BME280;61524;50.938;11.396;2022-12-18T05:41:02;100522.44;;;-15.48;94.09
73297;BME280;61524;50.938;11.396;2022-12-18T05:43:28;100531.00;;;-15.49;93.85
73297;BME280;61524;50.938;11.396;2022-12-18T05:45:54;100530.31;;;-15.54;94.78
73297;BME280;61524;50.938;11.396;2022-12-18T05:48:21;100538.84;;;-15.54;94.11
73297;BME280;61524;50.938;11.396;2022-12-18T05:50:48;100531.28;;;-15.58;94.02
73297;BME280;61524;50.938;11.396;2022-12-18T05:53:15;100534.63;;;-15.56;94.20
73297;BME280;61524;50.938;11.396;2022-12-18T05:55:42;100537.94;;;-15.53;95.14
73297;BME280;61524;50.938;11.396;2022-12-18T05:58:09;100546.81;;;-15.63;94.74
73297;BME280;61524;50.938;11.396;2022-12-18T06:00:36;100545.22;;;-15.67;94.53
73297;BME280;61524;50.938;11.396;2022-12-18T06:03:05;100545.13;;;-15.64;93.60
73297;BME280;61524;50.938;11.396;2022-12-18T06:05:35;100540.06;;;-15.66;94.45
73297;BME280;61524;50.938;11.396;2022-12-18T06:08:01;100543.13;;;-15.56;94.73
73297;BME280;61524;50.938;11.396;2022-12-18T06:10:26;100536.22;;;-15.52;94.81
73297;BME280;61524;50.938;11.396;2022-12-18T06:12:52;100536.22;;;-15.52;94.25
73297;BME280;61524;50.938;11.396;2022-12-18T06:15:17;100543.94;;;-15.54;94.02
73297;BME280;61524;50.938;11.396;2022-12-18T06:17:42;100544.78;;;-15.53;93.60
73297;BME280;61524;50.938;11.396;2022-12-18T06:20:08;100548.06;;;-15.48;94.86
73297;BME280;61524;50.938;11.396;2022-12-18T06:22:34;100540.69;;;-15.59;94.08
73297;BME280;61524;50.938;11.396;2022-12-18T06:25:00;100555.94;;;-15.56;95.13
73297;BME280;61524;50.938;11.396;2022-12-18T06:27:25;100556.81;;;-15.57;93.66
73297;BME280;61524;50.938;11.396;2022-12-18T06:29:51;100556.97;;;-15.62;94.07
73297;BME280;61524;50.938;11.396;2022-12-18T06:32:16;100560.56;;;-15.67;93.55
73297;BME280;61524;50.938;11.396;2022-12-18T06:34:42;100566.44;;;-15.64;94.70
73297;BME280;61524;50.938;11.396;2022-12-18T06:37:07;100559.59;;;-15.63;93.55
73297;BME280;61524;50.938;11.396;2022-12-18T06:39:32;100556.28;;;-15.67;94.59
73297;BME280;61524;50.938;11.396;2022-12-18T06:41:58;100557.97;;;-15.66;93.35
73297;BME280;61524;50.938;11.396;2022-12-18T06:44:23;100554.47;;;-15.63;93.71
73297;BME280;61524;50.938;11.396;2022-12-18T06:46:49;100564.63;;;-15.60;94.09
73297;BME280;61524;50.938;11.396;2022-12-18T06:49:15;100547.75;;;-15.67;93.45
73297;BME280;61524;50.938;11.396;2022-12-18T06:51:41;100562.22;;;-15.65;94.44
73297;BME280;61524;50.938;11.396;2022-12-18T06:54:07;100572.47;;;-15.65;94.48
73297;BME280;61524;50.938;11.396;2022-12-18T06:56:32;100563.97;;;-15.67;94.98
73297;BME280;61524;50.938;11.396;2022-12-18T06:58:58;100565.69;;;-15.67;93.88
73297;BME280;61524;50.938;11.396;2022-12-18T07:01:23;100565.75;;;-15.69;93.49
73297;BME280;61524;50.938;11.396;2022-12-18T07:03:56;100552.88;;;-15.67;93.53
73297;BME280;61524;50.938;11.396;2022-12-18T07:06:24;100541.72;;;-15.65;94.38
73297;BME280;61524;50.938;11.396;2022-12-18T07:08:51;100539.13;;;-15.63;95.24
73297;BME280;61524;50.938;11.396;2022-12-18T07:11:18;100531.34;;;-15.62;93.51
73297;BME280;61524;50.938;11.396;2022-12-18T07:13:45;100538.00;;;-15.54;95.22
73297;BME280;61524;50.938;11.396;2022-12-18T07:16:14;100537.94;;;-15.53;95.51
73297;BME280;61524;50.938;11.396;2022-12-18T07:18:39;100544.59;;;-15.47;95.04
73297;BME280;61524;50.938;11.396;2022-12-18T07:21:07;100554.91;;;-15.50;94.14
73297;BME280;61524;50.938;11.396;2022-12-18T07:23:34;100564.34;;;-15.51;94.71
73297;BME280;61524;50.938;11.396;2022-12-18T07:26:07;100569.44;;;-15.49;94.70
73297;BME280;61524;50.938;11.396;2022-12-18T07:28:34;100562.59;;;-15.50;95.09
73297;BME280;61524;50.938;11.396;2022-12-18T07:31:08;100559.84;;;-15.43;93.35
73297;BME280;61524;50.938;11.396;2022-12-18T07:33:35;100561.63;;;-15.46;94.12
73297;BME280;61524;50.938;11.396;2022-12-18T07:36:02;100570.97;;;-15.44;94.03
73297;BME280;61524;50.938;11.396;2022-12-18T07:38:29;100573.47;;;-15.42;93.22
73297;BME280;61524;50.938;11.396;2022-12-18T07:40:54;100576.81;;;-15.40;93.56
73297;BME280;61524;50.938;11.396;2022-12-18T07:43:20;100575.94;;;-15.39;93.69
73297;BME280;61524;50.938;11.396;2022-12-18T07:45:45;100575.84;;;-15.36;93.75
73297;BME280;61524;50.938;11.396;2022-12-18T07:48:14;100585.09;;;-15.30;94.34
73297;BME280;61524;50.938;11.396;2022-12-18T07:50:39;100594.22;;;-15.22;93.53
73297;BME280;61524;50.938;11.396;2022-12-18T07:53:04;100593.06;;;-15.12;93.50
73297;BME280;61524;50.938;11.396;2022-12-18T07:55:31;100603.91;;;-15.03;93.57
73297;BME280;61524;50.938;11.396;2022-12-18T07:57:56;100604.53;;;-14.95;93.89
73297;BME280;61524;50.938;11.396;2022-12-18T08:00:22;100613.66;;;-14.87;92.29
73297;BME280;61524;50.938;11.396;2022-12-18T08:02:47;100605.81;;;-14.82;92.27
73297;BME280;61524;50.938;11.396;2022-12-18T08:05:13;100609.66;;;-14.69;92.40
73297;BME280;61524;50.938;11.396;2022-12-18T08:07:39;100620.63;;;-14.64;92.78
73297;BME280;61524;50.938;11.396;2022-12-18T08:10:05;100620.25;;;-14.51;94.08
73297;BME280;61524;50.938;11.396;2022-12-18T08:12:31;100616.56;;;-14.44;92.82
73297;BME280;61524;50.938;11.396;2022-12-18T08:14:57;100634.31;;;-14.38;93.91
73297;BME280;61524;50.938;11.396;2022-12-18T08:17:22;100628.00;;;-14.28;92.62
73297;BME280;61524;50.938;11.396;2022-12-18T08:19:48;100635.94;;;-14.09;94.93
73297;BME280;61524;50.938;11.396;2022-12-18T08:22:13;100631.22;;;-13.96;93.31
73297;BME280;61524;50.938;11.396;2022-12-18T08:24:38;100631.84;;;-13.90;93.43
73297;BME280;61524;50.938;11.396;2022-12-18T08:27:04;100636.72;;;-13.82;94.00
73297;BME280;61524;50.938;11.396;2022-12-18T08:29:29;100627.63;;;-13.67;93.88
73297;BME280;61524;50.938;11.396;2022-12-18T08:31:55;100619.78;;;-13.63;93.05
73297;BME280;61524;50.938;11.396;2022-12-18T08:34:21;100615.25;;;-13.56;93.17
73297;BME280;61524;50.938;11.396;2022-12-18T08:36:46;100624.19;;;-13.43;92.96
73297;BME280;61524;50.938;11.396;2022-12-18T08:39:12;100614.47;;;-13.35;93.46
73297;BME280;61524;50.938;11.396;2022-12-18T08:41:37;100602.25;;;-13.28;92.67
73297;BME280;61524;50.938;11.396;2022-12-18T08:44:03;100608.69;;;-13.18;92.84
73297;BME280;61524;50.938;11.396;2022-12-18T08:46:58;100618.03;;;-12.93;92.50
73297;BME280;61524;50.938;11.396;2022-12-18T08:49:23;100616.88;;;-12.86;92.06
73297;BME280;61524;50.938;11.396;2022-12-18T08:51:54;100607.16;;;-12.78;92.61
73297;BME280;61524;50.938;11.396;2022-12-18T08:54:19;100607.88;;;-12.75;93.50
73297;BME280;61524;50.938;11.396;2022-12-18T08:56:45;100610.03;;;-12.64;93.17
73297;BME280;61524;50.938;11.396;2022-12-18T08:59:11;100602.72;;;-12.53;93.41
73297;BME280;61524;50.938;11.396;2022-12-18T09:01:36;100595.66;;;-12.48;92.37
73297;BME280;61524;50.938;11.396;2022-12-18T09:04:02;100584.19;;;-12.40;92.04
73297;BME280;61524;50.938;11.396;2022-12-18T09:06:27;100589.09;;;-12.34;93.01
73297;BME280;61524;50.938;11.396;2022-12-18T09:08:53;100580.19;;;-12.27;93.22
73297;BME280;61524;50.938;11.396;2022-12-18T09:13:45;100596.56;;;-12.08;92.64
73297;BME280;61524;50.938;11.396;2022-12-18T09:16:11;100596.09;;;-11.97;93.10
73297;BME280;61524;50.938;11.396;2022-12-18T09:18:36;100598.34;;;-11.89;92.25
73297;BME280;61524;50.938;11.396;2022-12-18T09:21:16;100593.06;;;-11.86;92.79
73297;BME280;61524;50.938;11.396;2022-12-18T09:23:42;100584.00;;;-11.76;92.15
73297;BME280;61524;50.938;11.396;2022-12-18T09:26:08;100593.94;;;-11.67;93.10
73297;BME280;61524;50.938;11.396;2022-12-18T09:28:34;100585.72;;;-11.56;93.24
73297;BME280;61524;50.938;11.396;2022-12-18T09:31:04;100590.53;;;-11.49;92.90
73297;BME280;61524;50.938;11.396;2022-12-18T09:33:31;100580.72;;;-11.41;92.83
73297;BME280;61524;50.938;11.396;2022-12-18T09:35:56;100583.66;;;-11.29;92.92
73297;BME280;61524;50.938;11.396;2022-12-18T09:38:22;100562.56;;;-11.20;92.60
73297;BME280;61524;50.938;11.396;2022-12-18T09:40:51;100574.06;;;-11.08;92.96
73297;BME280;61524;50.938;11.396;2022-12-18T09:43:26;100572.97;;;-11.03;92.55
73297;BME280;61524;50.938;11.396;2022-12-18T09:46:00;100546.72;;;-10.94;92.74
73297;BME280;61524;50.938;11.396;2022-12-18T09:48:31;100550.91;;;-10.91;93.58
73297;BME280;61524;50.938;11.396;2022-12-18T09:51:03;100548.28;;;-10.72;93.22
73297;BME280;61524;50.938;11.396;2022-12-18T09:53:33;100551.16;;;-10.61;93.15
73297;BME280;61524;50.938;11.396;2022-12-18T09:56:02;100549.81;;;-10.51;93.11
73297;BME280;61524;50.938;11.396;2022-12-18T09:58:39;100543.28;;;-10.41;92.83
73297;BME280;61524;50.938;11.396;2022-12-18T10:01:15;100547.00;;;-10.29;93.07
73297;BME280;61524;50.938;11.396;2022-12-18T10:03:43;100534.50;;;-10.21;93.63
73297;BME280;61524;50.938;11.396;2022-12-18T10:06:18;100538.91;;;-10.06;93.31
73297;BME280;61524;50.938;11.396;2022-12-18T10:17:35;100532.16;;;-9.43;92.38
73297;BME280;61524;50.938;11.396;2022-12-18T10:20:40;100539.78;;;-9.24;92.01
73297;BME280;61524;50.938;11.396;2022-12-18T10:23:29;100525.09;;;-9.08;93.19
73297;BME280;61524;50.938;11.396;2022-12-18T10:26:02;100525.56;;;-8.86;92.67
73297;BME280;61524;50.938;11.396;2022-12-18T10:28:30;100528.94;;;-8.69;91.79
73297;BME280;61524;50.938;11.396;2022-12-18T10:30:56;100514.66;;;-8.61;91.29
73297;BME280;61524;50.938;11.396;2022-12-18T10:33:23;100521.63;;;-8.47;90.58
73297;BME280;61524;50.938;11.396;2022-12-18T10:35:52;100507.91;;;-8.35;89.28
73297;BME280;61524;50.938;11.396;2022-12-18T10:40:58;100511.16;;;-8.31;89.56
73297;BME280;61524;50.938;11.396;2022-12-18T10:43:37;100512.66;;;-8.27;89.82
73297;BME280;61524;50.938;11.396;2022-12-18T10:51:20;100519.63;;;-7.99;89.73
73297;BME280;61524;50.938;11.396;2022-12-18T10:53:52;100528.50;;;-8.03;88.55
73297;BME280;61524;50.938;11.396;2022-12-18T10:56:20;100533.25;;;-7.96;89.74
73297;BME280;61524;50.938;11.396;2022-12-18T10:58:55;100537.25;;;-7.90;88.81
73297;BME280;61524;50.938;11.396;2022-12-18T11:01:21;100532.41;;;-7.82;89.80
73297;BME280;61524;50.938;11.396;2022-12-18T11:04:00;100534.66;;;-7.90;89.26
73297;BME280;61524;50.938;11.396;2022-12-18T11:06:27;100547.25;;;-7.84;89.50
73297;BME280;61524;50.938;11.396;2022-12-18T11:09:03;100548.72;;;-7.80;88.36
73297;BME280;61524;50.938;11.396;2022-12-18T11:11:29;100548.34;;;-7.74;88.43
73297;BME280;61524;50.938;11.396;2022-12-18T11:14:14;100536.84;;;-7.55;88.58
73297;BME280;61524;50.938;11.396;2022-12-18T11:16:50;100524.81;;;-7.42;88.29
73297;BME280;61524;50.938;11.396;2022-12-18T11:19:26;100519.66;;;-7.29;88.07
73297;BME280;61524;50.938;11.396;2022-12-18T11:21:54;100523.41;;;-7.06;88.23
73297;BME280;61524;50.938;11.396;2022-12-18T11:24:32;100514.47;;;-6.88;87.32
73297;BME280;61524;50.938;11.396;2022-12-18T11:27:01;100523.84;;;-6.73;87.06
73297;BME280;61524;50.938;11.396;2022-12-18T11:34:42;100514.38;;;-6.34;87.84
73297;BME280;61524;50.938;11.396;2022-12-18T11:37:12;100517.81;;;-6.21;88.65
73297;BME280;61524;50.938;11.396;2022-12-18T11:39:58;100520.63;;;-5.98;88.07
73297;BME280;61524;50.938;11.396;2022-12-18T11:42:35;100511.44;;;-5.78;88.42
73297;BME280;61524;50.938;11.396;2022-12-18T11:47:50;100505.13;;;-5.38;87.39
73297;BME280;61524;50.938;11.396;2022-12-18T11:50:24;100506.13;;;-5.28;87.98
73297;BME280;61524;50.938;11.396;2022-12-18T11:52:50;100493.19;;;-4.92;86.63
73297;BME280;61524;50.938;11.396;2022-12-18T11:55:39;100496.13;;;-4.73;86.67
73297;BME280;61524;50.938;11.396;2022-12-18T11:58:39;100484.75;;;-4.26;85.42
73297;BME280;61524;50.938;11.396;2022-12-18T12:04:26;100461.19;;;-3.90;84.39
73297;BME280;61524;50.938;11.396;2022-12-18T12:15:30;100461.38;;;-3.37;81.00
73297;BME280;61524;50.938;11.396;2022-12-18T12:17:57;100460.38;;;-3.14;81.20
73297;BME280;61524;50.938;11.396;2022-12-18T12:39:27;100446.84;;;-2.87;79.06
73297;BME280;61524;50.938;11.396;2022-12-18T12:41:55;100448.94;;;-2.81;78.45
73297;BME280;61524;50.938;11.396;2022-12-18T12:44:58;100435.41;;;-2.86;78.29
73297;BME280;61524;50.938;11.396;2022-12-18T12:47:30;100438.69;;;-2.94;79.00
73297;BME280;61524;50.938;11.396;2022-12-18T12:50:01;100447.25;;;-3.03;79.09
73297;BME280;61524;50.938;11.396;2022-12-18T12:52:33;100450.88;;;-3.15;79.14
73297;BME280;61524;50.938;11.396;2022-12-18T12:55:02;100437.56;;;-3.12;79.52
73297;BME280;61524;50.938;11.396;2022-12-18T12:57:39;100445.06;;;-3.19;79.42
73297;BME280;61524;50.938;11.396;2022-12-18T13:00:18;100435.69;;;-3.21;78.74
73297;BME280;61524;50.938;11.396;2022-12-18T13:08:04;100430.06;;;-3.49;79.25
73297;BME280;61524;50.938;11.396;2022-12-18T13:10:41;100430.56;;;-3.55;78.65
73297;BME280;61524;50.938;11.396;2022-12-18T13:16:02;100436.00;;;-3.58;79.05
73297;BME280;61524;50.938;11.396;2022-12-18T13:18:28;100426.50;;;-3.59;79.17
73297;BME280;61524;50.938;11.396;2022-12-18T13:25:57;100420.31;;;-3.47;78.91
73297;BME280;61524;50.938;11.396;2022-12-18T13:30:58;100415.72;;;-3.54;78.83
73297;BME280;61524;50.938;11.396;2022-12-18T13:36:41;100397.78;;;-3.59;78.79
73297;BME280;61524;50.938;11.396;2022-12-18T13:39:24;100398.72;;;-3.49;78.35
73297;BME280;61524;50.938;11.396;2022-12-18T13:46:55;100383.16;;;-3.50;77.80
73297;BME280;61524;50.938;11.396;2022-12-18T13:49:37;100373.91;;;-3.54;78.79
73297;BME280;61524;50.938;11.396;2022-12-18T13:52:15;100381.84;;;-3.56;78.77
73297;BME280;61524;50.938;11.396;2022-12-18T13:54:42;100384.97;;;-3.62;78.75
73297;BME280;61524;50.938;11.396;2022-12-18T13:59:52;100399.47;;;-3.69;79.69
73297;BME280;61524;50.938;11.396;2022-12-18T14:02:23;100387.59;;;-3.73;80.20
73297;BME280;61524;50.938;11.396;2022-12-18T14:04:49;100402.09;;;-3.80;80.21
73297;BME280;61524;50.938;11.396;2022-12-18T14:07:24;100406.97;;;-3.87;80.62
73297;BME280;61524;50.938;11.396;2022-12-18T14:09:52;100397.38;;;-3.98;81.18
73297;BME280;61524;50.938;11.396;2022-12-18T14:12:25;100394.28;;;-4.03;80.83
73297;BME280;61524;50.938;11.396;2022-12-18T14:17:53;100404.81;;;-4.15;82.15
73297;BME280;61524;50.938;11.396;2022-12-18T14:20:19;100402.69;;;-4.22;81.65
73297;BME280;61524;50.938;11.396;2022-12-18T14:22:47;100402.81;;;-4.23;81.76
73297;BME280;61524;50.938;11.396;2022-12-18T14:25:22;100397.38;;;-4.09;81.01
73297;BME280;61524;50.938;11.396;2022-12-18T14:28:02;100394.84;;;-3.99;80.15
73297;BME280;61524;50.938;11.396;2022-12-18T14:30:33;100402.09;;;-3.91;79.68